createdAt,value
2018-07-30T00:00:08.187Z,22.73
2018-07-30T00:01:08.152Z,22.63
2018-07-30T00:02:08.129Z,22.69
2018-07-30T00:03:08.095Z,22.55
2018-07-30T00:04:08.067Z,22.57
2018-07-30T00:05:08.034Z,22.60
2018-07-30T00:06:08.003Z,22.54
2018-07-30T00:07:07.972Z,22.51
2018-07-30T00:08:07.946Z,22.53
2018-07-30T00:09:07.907Z,22.53
2018-07-30T00:10:07.877Z,22.39
2018-07-30T00:11:07.848Z,22.39
2018-07-30T00:12:07.820Z,22.47
2018-07-30T00:13:07.787Z,22.43
2018-07-30T00:14:07.790Z,22.41
2018-07-30T00:15:07.724Z,22.45
2018-07-30T00:16:07.694Z,22.39
2018-07-30T00:17:07.670Z,22.41
2018-07-30T00:18:07.636Z,22.32
2018-07-30T00:19:07.605Z,22.35
2018-07-30T00:20:07.574Z,22.28
2018-07-30T00:21:07.540Z,22.36
2018-07-30T00:22:07.507Z,22.26
2018-07-30T00:23:07.476Z,22.22
2018-07-30T00:24:07.448Z,22.18
2018-07-30T00:25:07.422Z,22.17
2018-07-30T00:26:07.392Z,22.17
2018-07-30T00:27:07.355Z,22.22
2018-07-30T00:28:07.326Z,22.10
2018-07-30T00:29:07.297Z,22.07
2018-07-30T00:30:07.267Z,22.10
2018-07-30T00:31:07.237Z,22.11
2018-07-30T00:32:07.205Z,22.14
2018-07-30T00:33:07.176Z,22.13
2018-07-30T00:34:07.139Z,22.07
2018-07-30T00:35:07.107Z,22.04
2018-07-30T00:36:07.078Z,21.95
2018-07-30T00:37:07.053Z,21.95
2018-07-30T00:38:07.021Z,21.89
2018-07-30T00:39:06.991Z,21.91
2018-07-30T00:40:06.963Z,21.88
2018-07-30T00:41:06.928Z,21.83
2018-07-30T00:42:06.891Z,21.77
2018-07-30T00:43:06.867Z,21.75
2018-07-30T00:44:06.836Z,21.69
2018-07-30T00:45:06.803Z,21.72
2018-07-30T00:46:06.768Z,21.73
2018-07-30T00:47:06.737Z,21.67
2018-07-30T00:48:06.741Z,21.75
2018-07-30T00:49:06.681Z,21.67
2018-07-30T00:50:06.651Z,21.75
2018-07-30T00:51:06.620Z,21.70
2018-07-30T00:52:06.593Z,21.75
2018-07-30T00:53:06.561Z,21.69
2018-07-30T00:54:06.527Z,21.85
2018-07-30T00:55:06.494Z,21.85
2018-07-30T00:56:06.463Z,21.85
2018-07-30T00:57:06.435Z,21.91
2018-07-30T00:58:06.403Z,21.92
2018-07-30T00:59:06.367Z,21.95
2018-07-30T01:00:06.339Z,21.95
2018-07-30T01:01:06.309Z,21.99
2018-07-30T01:02:06.279Z,21.95
2018-07-30T01:03:06.248Z,21.98
2018-07-30T01:04:06.217Z,21.92
2018-07-30T01:05:06.194Z,21.99
2018-07-30T01:06:06.149Z,21.95
2018-07-30T01:07:06.118Z,21.95
2018-07-30T01:08:06.091Z,21.93
2018-07-30T01:09:06.063Z,21.93
2018-07-30T01:10:06.031Z,21.98
2018-07-30T01:11:06.003Z,21.93
2018-07-30T01:12:05.968Z,21.93
2018-07-30T01:13:05.935Z,21.88
2018-07-30T01:14:05.901Z,21.92
2018-07-30T01:15:05.878Z,21.89
2018-07-30T01:16:05.844Z,21.89
2018-07-30T01:17:05.811Z,21.80
2018-07-30T01:18:05.776Z,21.79
2018-07-30T01:19:05.746Z,21.85
2018-07-30T01:20:05.718Z,21.89
2018-07-30T01:21:05.689Z,21.82
2018-07-30T01:22:05.664Z,21.88
2018-07-30T01:23:05.631Z,21.95
2018-07-30T01:24:05.598Z,22.00
2018-07-30T01:25:05.566Z,21.99
2018-07-30T01:26:05.530Z,21.93
2018-07-30T01:27:05.498Z,21.93
2018-07-30T01:28:05.468Z,22.00
2018-07-30T01:29:05.440Z,22.08
2018-07-30T01:30:05.409Z,22.11
2018-07-30T01:31:05.375Z,22.10
2018-07-30T01:32:05.344Z,22.08
2018-07-30T01:33:05.316Z,22.10
2018-07-30T01:34:05.287Z,22.22
2018-07-30T01:35:05.255Z,22.17
2018-07-30T01:36:05.224Z,22.15
2018-07-30T01:37:05.192Z,22.23
2018-07-30T01:38:05.159Z,22.17
2018-07-30T01:39:05.125Z,22.18
2018-07-30T01:40:05.100Z,22.17
2018-07-30T01:41:05.068Z,22.25
2018-07-30T01:42:05.037Z,22.15
2018-07-30T01:43:05.008Z,22.20
2018-07-30T01:44:04.975Z,22.20
2018-07-30T01:45:04.943Z,22.23
2018-07-30T01:46:04.909Z,22.18
2018-07-30T01:47:04.883Z,22.23
2018-07-30T01:48:04.853Z,22.22
2018-07-30T01:49:04.818Z,22.22
2018-07-30T01:50:04.784Z,22.18
2018-07-30T01:51:04.753Z,22.08
2018-07-30T01:52:04.731Z,22.07
2018-07-30T01:53:04.699Z,21.98
2018-07-30T01:54:04.672Z,21.98
2018-07-30T01:55:04.636Z,21.99
2018-07-30T01:56:04.602Z,21.91
2018-07-30T01:57:04.570Z,21.89
2018-07-30T01:58:04.534Z,21.80
2018-07-30T01:59:04.522Z,21.83
2018-07-30T02:00:04.476Z,21.85
2018-07-30T02:01:04.448Z,21.75
2018-07-30T02:02:04.422Z,21.69
2018-07-30T02:03:04.380Z,21.69
2018-07-30T02:04:04.353Z,21.66
2018-07-30T02:05:04.324Z,21.67
2018-07-30T02:06:04.293Z,21.67
2018-07-30T02:07:04.274Z,21.73
2018-07-30T02:08:04.233Z,21.70
2018-07-30T02:09:04.200Z,21.70
2018-07-30T02:10:04.170Z,21.79
2018-07-30T02:11:04.135Z,21.76
2018-07-30T02:12:04.104Z,21.76
2018-07-30T02:13:04.074Z,21.70
2018-07-30T02:14:04.043Z,21.73
2018-07-30T02:15:04.014Z,21.83
2018-07-30T02:16:03.981Z,21.82
2018-07-30T02:17:03.947Z,21.80
2018-07-30T02:18:03.918Z,21.80
2018-07-30T02:19:03.889Z,21.82
2018-07-30T02:20:03.856Z,21.82
2018-07-30T02:21:03.826Z,21.85
2018-07-30T02:22:03.791Z,21.91
2018-07-30T02:23:03.764Z,21.77
2018-07-30T02:24:03.736Z,21.79
2018-07-30T02:25:03.705Z,21.79
2018-07-30T02:26:03.670Z,21.76
2018-07-30T02:27:03.639Z,21.79
2018-07-30T02:28:03.606Z,21.80
2018-07-30T02:29:03.574Z,21.82
2018-07-30T02:30:03.541Z,21.82
2018-07-30T02:31:03.507Z,21.82
2018-07-30T02:32:03.486Z,21.83
2018-07-30T02:33:03.480Z,21.80
2018-07-30T02:34:03.422Z,21.82
2018-07-30T02:35:03.385Z,21.70
2018-07-30T02:36:03.355Z,21.73
2018-07-30T02:37:03.326Z,21.70
2018-07-30T02:38:03.296Z,21.62
2018-07-30T02:39:03.264Z,21.67
2018-07-30T02:40:03.233Z,21.70
2018-07-30T02:41:03.200Z,21.69
2018-07-30T02:42:03.166Z,21.62
2018-07-30T02:43:03.138Z,21.61
2018-07-30T02:44:03.105Z,21.66
2018-07-30T02:45:03.076Z,21.66
2018-07-30T02:46:03.046Z,21.58
2018-07-30T02:47:03.019Z,21.51
2018-07-30T02:48:02.982Z,21.54
2018-07-30T02:49:02.950Z,21.46
2018-07-30T02:50:02.917Z,21.50
2018-07-30T02:51:02.895Z,21.40
2018-07-30T02:52:02.857Z,21.36
2018-07-30T02:53:02.824Z,21.42
2018-07-30T02:54:02.792Z,21.35
2018-07-30T02:55:02.759Z,21.20
2018-07-30T02:56:02.730Z,21.29
2018-07-30T02:57:02.703Z,21.32
2018-07-30T02:58:02.672Z,21.25
2018-07-30T02:59:02.643Z,21.24
2018-07-30T03:00:02.607Z,21.29
2018-07-30T03:01:02.574Z,21.27
2018-07-30T03:02:02.551Z,21.22
2018-07-30T03:03:02.509Z,21.14
2018-07-30T03:04:02.478Z,21.05
2018-07-30T03:05:02.450Z,20.93
2018-07-30T03:06:02.420Z,20.97
2018-07-30T03:07:02.382Z,20.82
2018-07-30T03:08:02.355Z,20.88
2018-07-30T03:09:02.324Z,20.88
2018-07-30T03:10:02.298Z,20.87
2018-07-30T03:11:02.264Z,20.81
2018-07-30T03:12:02.231Z,20.87
2018-07-30T03:13:02.196Z,20.84
2018-07-30T03:14:02.163Z,20.77
2018-07-30T03:15:02.131Z,20.78
2018-07-30T03:16:02.102Z,20.75
2018-07-30T03:17:02.081Z,20.78
2018-07-30T03:18:02.046Z,20.80
2018-07-30T03:19:02.012Z,20.87
2018-07-30T03:20:01.980Z,20.84
2018-07-30T03:21:01.945Z,20.92
2018-07-30T03:22:01.913Z,20.93
2018-07-30T03:23:01.887Z,20.97
2018-07-30T03:24:01.851Z,20.90
2018-07-30T03:25:01.820Z,20.88
2018-07-30T03:26:01.785Z,20.90
2018-07-30T03:27:01.754Z,20.97
2018-07-30T03:28:01.724Z,21.05
2018-07-30T03:29:01.699Z,20.99
2018-07-30T03:30:01.666Z,20.97
2018-07-30T03:31:01.632Z,21.02
2018-07-30T03:32:01.600Z,21.05
2018-07-30T03:33:01.566Z,21.03
2018-07-30T03:34:01.531Z,21.12
2018-07-30T03:35:01.500Z,21.24
2018-07-30T03:36:01.471Z,21.15
2018-07-30T03:37:01.441Z,21.27
2018-07-30T03:38:01.411Z,21.29
2018-07-30T03:39:01.372Z,21.30
2018-07-30T03:40:01.349Z,21.36
2018-07-30T03:41:01.320Z,21.32
2018-07-30T03:42:01.285Z,21.30
2018-07-30T03:43:01.253Z,21.29
2018-07-30T03:44:01.219Z,21.32
2018-07-30T03:45:01.195Z,21.25
2018-07-30T03:46:01.152Z,21.18
2018-07-30T03:47:01.148Z,21.15
2018-07-30T03:48:01.150Z,21.03
2018-07-30T03:49:01.061Z,21.09
2018-07-30T03:50:01.032Z,21.06
2018-07-30T03:51:01.000Z,21.12
2018-07-30T04:08:32.002Z,21.11
2018-07-30T04:09:31.934Z,21.22
2018-07-30T04:10:31.892Z,21.11
2018-07-30T04:11:31.857Z,21.05
2018-07-30T04:12:31.822Z,20.97
2018-07-30T04:13:31.801Z,20.99
2018-07-30T04:14:31.756Z,20.97
2018-07-30T04:15:31.723Z,20.96
2018-07-30T04:16:31.687Z,20.99
2018-07-30T04:17:31.652Z,20.96
2018-07-30T04:18:31.614Z,20.88
2018-07-30T04:19:31.581Z,20.82
2018-07-30T04:20:31.549Z,20.87
2018-07-30T04:21:31.513Z,20.90
2018-07-30T04:22:31.486Z,20.88
2018-07-30T04:23:31.453Z,20.96
2018-07-30T04:24:31.416Z,20.92
2018-07-30T04:25:31.381Z,21.02
2018-07-30T04:26:31.358Z,20.96
2018-07-30T04:27:31.319Z,21.02
2018-07-30T04:28:31.291Z,20.97
2018-07-30T04:29:31.256Z,21.11
2018-07-30T04:30:31.220Z,21.00
2018-07-30T04:31:31.189Z,21.11
2018-07-30T04:32:31.159Z,21.12
2018-07-30T04:33:31.121Z,21.11
2018-07-30T04:34:31.098Z,21.09
2018-07-30T04:35:31.061Z,21.09
2018-07-30T04:36:31.038Z,21.11
2018-07-30T04:37:31.004Z,21.09
2018-07-30T04:38:30.960Z,21.18
2018-07-30T04:39:30.934Z,21.15
2018-07-30T04:40:30.905Z,21.24
2018-07-30T04:41:30.875Z,21.18
2018-07-30T04:42:30.839Z,21.15
2018-07-30T04:43:30.807Z,21.17
2018-07-30T04:44:30.774Z,21.11
2018-07-30T04:45:30.738Z,21.24
2018-07-30T04:46:30.712Z,21.24
2018-07-30T04:47:30.677Z,21.30
2018-07-30T04:48:30.648Z,21.40
2018-07-30T04:49:30.618Z,21.36
2018-07-30T04:50:30.580Z,21.45
2018-07-30T04:51:30.550Z,21.46
2018-07-30T04:52:30.518Z,21.51
2018-07-30T04:53:30.483Z,21.66
2018-07-30T04:54:30.460Z,21.66
2018-07-30T04:55:30.426Z,21.76
2018-07-30T04:56:30.394Z,21.82
2018-07-30T04:57:30.357Z,21.70
2018-07-30T04:58:30.331Z,21.69
2018-07-30T04:59:30.299Z,21.80
2018-07-30T05:00:30.267Z,21.83
2018-07-30T05:01:30.244Z,21.83
2018-07-30T05:02:30.201Z,21.88
2018-07-30T05:03:30.181Z,21.82
2018-07-30T05:04:30.144Z,21.70
2018-07-30T05:05:30.115Z,21.69
2018-07-30T05:06:30.086Z,21.55
2018-07-30T05:07:30.049Z,21.55
2018-07-30T05:08:30.016Z,21.58
2018-07-30T05:09:29.991Z,21.46
2018-07-30T05:10:29.953Z,21.39
2018-07-30T05:11:29.923Z,21.43
2018-07-30T05:12:29.894Z,21.46
2018-07-30T05:13:29.863Z,21.48
2018-07-30T05:14:29.826Z,21.48
2018-07-30T05:15:29.797Z,21.51
2018-07-30T05:16:29.765Z,21.60
2018-07-30T05:17:29.731Z,21.69
2018-07-30T05:18:29.708Z,21.70
2018-07-30T05:19:29.800Z,21.73
2018-07-30T05:20:29.647Z,21.69
2018-07-30T05:21:29.618Z,21.73
2018-07-30T05:22:29.577Z,21.72
2018-07-30T05:23:29.548Z,21.85
2018-07-30T05:24:29.517Z,21.85
2018-07-30T05:25:29.529Z,21.92
2018-07-30T05:26:29.457Z,21.96
2018-07-30T05:27:29.424Z,22.10
2018-07-30T05:28:29.392Z,22.11
2018-07-30T05:29:29.361Z,22.18
2018-07-30T05:30:29.334Z,22.26
2018-07-30T05:31:29.315Z,22.26
2018-07-30T05:32:29.297Z,22.30
2018-07-30T05:33:29.239Z,22.39
2018-07-30T05:34:29.206Z,22.41
2018-07-30T05:35:29.182Z,22.63
2018-07-30T05:36:29.148Z,22.66
2018-07-30T05:37:29.122Z,22.78
2018-07-30T05:38:29.084Z,22.84
2018-07-30T05:39:29.056Z,22.99
2018-07-30T05:40:29.024Z,23.03
2018-07-30T05:41:28.993Z,23.09
2018-07-30T05:42:28.958Z,22.99
2018-07-30T05:43:28.926Z,23.09
2018-07-30T05:44:28.909Z,23.17
2018-07-30T05:45:28.868Z,23.05
2018-07-30T05:46:28.840Z,23.05
2018-07-30T05:47:28.804Z,23.09
2018-07-30T05:48:28.773Z,23.31
2018-07-30T05:49:28.747Z,23.25
2018-07-30T05:50:28.720Z,23.25
2018-07-30T05:51:28.688Z,23.28
2018-07-30T05:52:28.658Z,23.43
2018-07-30T05:53:28.626Z,23.47
2018-07-30T05:54:28.602Z,23.54
2018-07-30T05:55:28.561Z,23.50
2018-07-30T05:56:28.531Z,23.68
2018-07-30T05:57:28.503Z,23.66
2018-07-30T05:58:28.474Z,23.69
2018-07-30T05:59:28.518Z,23.66
2018-07-30T06:00:28.412Z,23.71
2018-07-30T06:01:28.382Z,23.77
2018-07-30T06:02:28.353Z,23.83
2018-07-30T06:03:28.326Z,23.83
2018-07-30T06:04:28.296Z,23.84
2018-07-30T06:05:28.287Z,23.83
2018-07-30T06:06:28.231Z,23.86
2018-07-30T06:07:28.201Z,23.86
2018-07-30T06:08:28.186Z,23.96
2018-07-30T06:09:28.143Z,23.99
2018-07-30T06:10:28.117Z,24.01
2018-07-30T06:11:28.086Z,24.02
2018-07-30T06:12:28.057Z,24.02
2018-07-30T06:13:28.028Z,24.06
2018-07-30T06:14:27.992Z,24.06
2018-07-30T06:15:27.961Z,24.16
2018-07-30T06:16:27.945Z,24.16
2018-07-30T06:17:27.911Z,24.17
2018-07-30T06:18:27.875Z,24.14
2018-07-30T06:19:27.843Z,24.21
2018-07-30T06:20:27.812Z,24.21
2018-07-30T06:21:27.786Z,24.28
2018-07-30T06:22:27.755Z,24.26
2018-07-30T06:23:27.729Z,24.26
2018-07-30T06:24:27.700Z,24.33
2018-07-30T06:25:27.668Z,24.21
2018-07-30T06:26:27.710Z,24.28
2018-07-30T06:27:27.675Z,24.38
2018-07-30T06:28:27.577Z,24.32
2018-07-30T06:29:27.547Z,24.43
2018-07-30T06:30:27.520Z,24.50
2018-07-30T06:31:27.491Z,24.48
2018-07-30T06:32:27.457Z,24.54
2018-07-30T06:33:27.438Z,24.63
2018-07-30T06:34:27.408Z,24.58
2018-07-30T06:35:27.374Z,24.58
2018-07-30T06:36:27.345Z,24.65
2018-07-30T06:37:27.313Z,24.73
2018-07-30T06:38:27.310Z,24.77
2018-07-30T06:39:27.250Z,24.84
2018-07-30T06:40:27.222Z,24.69
2018-07-30T06:41:27.199Z,24.80
2018-07-30T06:42:27.207Z,24.76
2018-07-30T06:43:27.139Z,24.74
2018-07-30T06:44:27.112Z,24.77
2018-07-30T06:45:27.079Z,24.70
2018-07-30T06:46:27.047Z,24.77
2018-07-30T06:47:27.020Z,24.70
2018-07-30T06:48:26.996Z,24.84
2018-07-30T06:49:26.963Z,24.88
2018-07-30T06:50:26.931Z,24.85
2018-07-30T06:51:26.899Z,24.96
2018-07-30T06:52:26.870Z,24.86
2018-07-30T06:53:26.842Z,24.93
2018-07-30T06:54:26.816Z,24.92
2018-07-30T06:55:26.793Z,24.95
2018-07-30T06:56:26.760Z,24.98
2018-07-30T06:57:26.728Z,25.10
2018-07-30T06:58:26.698Z,25.22
2018-07-30T06:59:26.670Z,25.22
2018-07-30T07:00:26.638Z,25.32
2018-07-30T07:01:26.610Z,25.43
2018-07-30T07:02:26.592Z,25.38
2018-07-30T07:03:26.558Z,25.38
2018-07-30T07:04:26.522Z,25.47
2018-07-30T07:05:26.497Z,25.43
2018-07-30T07:06:26.468Z,25.50
2018-07-30T07:07:26.440Z,25.46
2018-07-30T07:08:26.412Z,25.62
2018-07-30T07:09:26.390Z,25.63
2018-07-30T07:10:26.352Z,25.60
2018-07-30T07:11:26.319Z,25.59
2018-07-30T07:12:26.292Z,25.63
2018-07-30T07:13:26.279Z,25.68
2018-07-30T07:14:26.240Z,25.75
2018-07-30T07:15:26.213Z,25.83
2018-07-30T07:16:26.236Z,25.78
2018-07-30T07:17:26.153Z,25.85
2018-07-30T07:18:26.120Z,25.96
2018-07-30T07:19:26.092Z,25.98
2018-07-30T07:20:26.068Z,25.93
2018-07-30T07:21:26.064Z,25.98
2018-07-30T07:22:26.009Z,26.03
2018-07-30T07:23:25.992Z,26.05
2018-07-30T07:24:25.947Z,26.15
2018-07-30T07:25:25.919Z,26.15
2018-07-30T07:26:25.896Z,26.16
2018-07-30T07:27:25.877Z,26.22
2018-07-30T07:28:25.841Z,26.19
2018-07-30T07:29:25.814Z,26.28
2018-07-30T07:30:25.778Z,26.23
2018-07-30T07:31:25.748Z,26.36
2018-07-30T07:32:25.720Z,26.40
2018-07-30T07:33:25.693Z,26.41
2018-07-30T07:34:25.669Z,26.47
2018-07-30T07:35:25.641Z,26.52
2018-07-30T07:36:25.608Z,26.51
2018-07-30T07:37:25.579Z,26.44
2018-07-30T07:38:25.554Z,26.51
2018-07-30T07:39:25.530Z,26.51
2018-07-30T07:40:25.584Z,26.58
2018-07-30T07:41:25.469Z,26.52
2018-07-30T07:42:25.441Z,26.48
2018-07-30T07:43:25.410Z,26.51
2018-07-30T07:44:25.383Z,26.58
2018-07-30T07:45:25.358Z,26.60
2018-07-30T07:46:25.329Z,26.60
2018-07-30T07:47:25.305Z,26.71
2018-07-30T07:48:25.277Z,26.70
2018-07-30T07:49:25.244Z,26.75
2018-07-30T07:50:25.305Z,26.75
2018-07-30T07:51:25.191Z,26.89
2018-07-30T07:52:25.165Z,26.88
2018-07-30T07:53:25.133Z,26.84
2018-07-30T07:54:25.105Z,26.95
2018-07-30T07:55:25.073Z,26.93
2018-07-30T07:56:25.054Z,26.83
2018-07-30T07:57:25.017Z,26.93
2018-07-30T07:58:24.997Z,26.95
2018-07-30T07:59:24.974Z,26.97
2018-07-30T08:00:24.940Z,26.97
2018-07-30T08:01:24.919Z,27.05
2018-07-30T08:02:24.879Z,27.14
2018-07-30T08:03:24.851Z,27.10
2018-07-30T08:04:24.822Z,27.12
2018-07-30T08:05:24.795Z,27.07
2018-07-30T08:06:24.774Z,27.21
2018-07-30T08:07:24.747Z,27.18
2018-07-30T08:08:24.711Z,27.10
2018-07-30T08:09:24.684Z,27.15
2018-07-30T08:10:24.659Z,27.22
2018-07-30T08:11:24.636Z,27.27
2018-07-30T08:12:24.611Z,27.30
2018-07-30T08:13:24.577Z,27.18
2018-07-30T08:14:24.546Z,27.33
2018-07-30T08:15:24.516Z,27.36
2018-07-30T08:16:24.522Z,27.39
2018-07-30T08:17:24.463Z,27.47
2018-07-30T08:18:24.442Z,27.47
2018-07-30T08:19:24.427Z,27.49
2018-07-30T08:20:24.386Z,27.70
2018-07-30T08:21:24.359Z,27.67
2018-07-30T08:22:24.373Z,27.77
2018-07-30T08:23:24.295Z,27.89
2018-07-30T08:24:24.274Z,27.92
2018-07-30T08:25:24.243Z,27.89
2018-07-30T08:26:24.219Z,27.82
2018-07-30T08:27:24.185Z,27.77
2018-07-30T08:28:24.160Z,27.70
2018-07-30T08:29:24.133Z,27.60
2018-07-30T08:30:24.109Z,27.51
2018-07-30T08:31:24.084Z,27.42
2018-07-30T08:32:24.055Z,27.44
2018-07-30T08:33:24.026Z,27.47
2018-07-30T08:34:23.996Z,27.51
2018-07-30T08:35:23.966Z,27.63
2018-07-30T08:36:23.940Z,27.63
2018-07-30T08:37:23.911Z,27.68
2018-07-30T08:38:23.888Z,27.67
2018-07-30T08:39:23.862Z,27.68
2018-07-30T08:40:23.831Z,27.73
2018-07-30T08:41:23.804Z,27.59
2018-07-30T08:42:23.887Z,27.60
2018-07-30T08:43:23.755Z,27.59
2018-07-30T08:44:23.725Z,27.64
2018-07-30T08:45:23.700Z,27.82
2018-07-30T08:46:23.667Z,27.80
2018-07-30T08:47:23.643Z,27.83
2018-07-30T08:48:23.612Z,27.78
2018-07-30T08:49:23.586Z,27.85
2018-07-30T08:50:23.578Z,27.90
2018-07-30T08:51:23.535Z,27.95
2018-07-30T08:52:23.507Z,27.90
2018-07-30T08:53:23.484Z,27.96
2018-07-30T08:54:23.448Z,27.95
2018-07-30T08:55:23.422Z,27.95
2018-07-30T08:56:23.453Z,27.95
2018-07-30T08:57:23.368Z,28.04
2018-07-30T08:58:23.338Z,28.07
2018-07-30T08:59:23.317Z,28.23
2018-07-30T09:00:23.283Z,28.20
2018-07-30T09:01:23.256Z,28.17
2018-07-30T09:02:23.232Z,28.17
2018-07-30T09:03:23.213Z,28.30
2018-07-30T09:04:23.180Z,28.30
2018-07-30T09:05:23.150Z,28.52
2018-07-30T09:06:23.124Z,28.47
2018-07-30T09:07:23.094Z,28.57
2018-07-30T09:08:23.070Z,28.54
2018-07-30T09:09:23.043Z,28.56
2018-07-30T09:10:23.016Z,28.64
2018-07-30T09:11:22.990Z,28.66
2018-07-30T09:12:23.014Z,28.62
2018-07-30T09:13:22.930Z,28.78
2018-07-30T09:14:22.906Z,28.78
2018-07-30T09:15:22.881Z,28.88
2018-07-30T09:16:22.855Z,28.93
2018-07-30T09:17:22.836Z,28.93
2018-07-30T09:18:22.868Z,28.97
2018-07-30T09:19:22.768Z,29.02
2018-07-30T09:20:22.740Z,28.97
2018-07-30T09:21:22.717Z,29.02
2018-07-30T09:22:22.693Z,29.08
2018-07-30T09:23:22.671Z,29.16
2018-07-30T09:24:22.640Z,29.27
2018-07-30T09:25:22.608Z,29.17
2018-07-30T09:26:22.585Z,29.23
2018-07-30T09:27:22.553Z,29.24
2018-07-30T09:28:22.531Z,29.34
2018-07-30T09:29:22.502Z,29.13
2018-07-30T09:30:22.478Z,29.24
2018-07-30T09:31:22.450Z,29.26
2018-07-30T09:32:22.421Z,29.23
2018-07-30T09:33:22.393Z,29.19
2018-07-30T09:34:22.372Z,29.19
2018-07-30T09:35:22.348Z,29.13
2018-07-30T09:36:22.317Z,29.01
2018-07-30T09:37:22.287Z,29.01
2018-07-30T09:38:22.260Z,28.96
2018-07-30T09:39:22.283Z,28.96
2018-07-30T09:40:22.209Z,28.94
2018-07-30T09:41:22.179Z,28.86
2018-07-30T09:42:22.155Z,28.89
2018-07-30T09:43:22.130Z,28.89
2018-07-30T09:44:22.116Z,28.96
2018-07-30T09:45:22.073Z,29.07
2018-07-30T09:46:22.049Z,29.23
2018-07-30T09:47:22.027Z,29.26
2018-07-30T09:48:21.998Z,29.45
2018-07-30T09:49:21.968Z,29.56
2018-07-30T09:50:21.939Z,29.50
2018-07-30T09:51:21.927Z,29.65
2018-07-30T09:52:21.887Z,29.66
2018-07-30T09:53:21.858Z,29.59
2018-07-30T09:54:21.838Z,29.41
2018-07-30T09:55:21.813Z,29.45
2018-07-30T09:56:21.872Z,29.53
2018-07-30T09:57:21.809Z,29.49
2018-07-30T09:58:21.725Z,29.45
2018-07-30T09:59:21.715Z,29.50
2018-07-30T10:00:21.678Z,29.65
2018-07-30T10:01:21.651Z,29.61
2018-07-30T10:02:21.622Z,29.57
2018-07-30T10:03:21.600Z,29.50
2018-07-30T10:04:21.568Z,29.61
2018-07-30T10:05:21.540Z,29.50
2018-07-30T10:06:21.569Z,29.54
2018-07-30T10:07:21.510Z,29.71
2018-07-30T10:21:28.933Z,29.93
2018-07-30T10:22:28.889Z,29.97
2018-07-30T10:23:28.852Z,30.03
2018-07-30T10:24:28.813Z,30.09
2018-07-30T10:25:28.784Z,30.27
2018-07-30T10:26:28.758Z,30.32
2018-07-30T10:27:28.729Z,30.40
2018-07-30T10:28:28.720Z,30.53
2018-07-30T10:29:28.668Z,30.48
2018-07-30T10:30:28.647Z,30.53
2018-07-30T10:31:28.613Z,30.43
2018-07-30T10:32:28.588Z,30.34
2018-07-30T10:33:28.561Z,30.24
2018-07-30T10:34:28.585Z,30.18
2018-07-30T10:35:28.508Z,30.12
2018-07-30T10:36:28.475Z,30.06
2018-07-30T10:37:28.459Z,29.91
2018-07-30T10:38:28.421Z,29.91
2018-07-30T10:39:28.394Z,29.82
2018-07-30T10:40:28.370Z,29.81
2018-07-30T10:41:28.345Z,29.82
2018-07-30T10:42:28.316Z,29.79
2018-07-30T10:43:28.288Z,29.91
2018-07-30T10:44:28.263Z,30.03
2018-07-30T10:45:28.239Z,30.03
2018-07-30T10:46:28.258Z,30.13
2018-07-30T10:47:28.182Z,30.31
2018-07-30T10:48:28.229Z,30.44
2018-07-30T10:49:28.126Z,30.46
2018-07-30T10:50:28.100Z,30.53
2018-07-30T10:51:28.074Z,30.50
2018-07-30T10:52:28.052Z,30.46
2018-07-30T10:53:28.026Z,30.53
2018-07-30T10:54:27.999Z,30.55
2018-07-30T10:55:27.970Z,30.69
2018-07-30T10:56:27.947Z,30.83
2018-07-30T10:57:27.914Z,30.97
2018-07-30T10:58:27.894Z,30.97
2018-07-30T10:59:27.866Z,30.80
2018-07-30T11:00:27.839Z,30.68
2018-07-30T11:01:27.811Z,30.34
2018-07-30T11:02:27.785Z,30.24
2018-07-30T11:03:27.764Z,30.23
2018-07-30T11:04:27.736Z,30.23
2018-07-30T11:05:27.713Z,30.30
2018-07-30T11:06:27.685Z,30.32
2018-07-30T11:07:27.660Z,30.39
2018-07-30T11:08:27.630Z,30.51
2018-07-30T11:09:27.601Z,30.61
2018-07-30T11:10:27.577Z,30.69
2018-07-30T11:11:27.553Z,30.73
2018-07-30T11:12:27.527Z,30.84
2018-07-30T11:13:27.507Z,31.02
2018-07-30T11:14:27.472Z,31.17
2018-07-30T11:15:27.453Z,31.31
2018-07-30T11:16:27.424Z,31.34
2018-07-30T11:17:27.400Z,31.33
2018-07-30T11:18:27.375Z,31.22
2018-07-30T11:19:27.346Z,31.24
2018-07-30T11:20:27.321Z,31.33
2018-07-30T11:21:27.340Z,31.21
2018-07-30T11:22:27.271Z,31.09
2018-07-30T11:23:27.244Z,31.00
2018-07-30T11:24:27.217Z,31.03
2018-07-30T11:25:27.209Z,31.12
2018-07-30T11:26:27.165Z,31.33
2018-07-30T11:27:27.139Z,31.56
2018-07-30T11:28:27.116Z,31.61
2018-07-30T11:29:27.092Z,31.71
2018-07-30T11:30:27.061Z,31.92
2018-07-30T11:31:27.037Z,31.92
2018-07-30T11:32:27.016Z,31.87
2018-07-30T11:33:27.053Z,31.99
2018-07-30T11:34:26.970Z,32.11
2018-07-30T11:35:26.938Z,32.23
2018-07-30T11:36:26.912Z,32.15
2018-07-30T11:37:26.886Z,32.29
2018-07-30T11:38:26.864Z,32.30
2018-07-30T11:39:26.836Z,32.40
2018-07-30T11:40:26.813Z,32.53
2018-07-30T11:41:26.789Z,32.52
2018-07-30T11:42:26.765Z,32.46
2018-07-30T11:43:26.739Z,32.15
2018-07-30T11:44:26.712Z,31.97
2018-07-30T11:45:26.690Z,31.65
2018-07-30T11:46:26.664Z,31.64
2018-07-30T11:47:26.636Z,31.58
2018-07-30T11:48:26.681Z,31.29
2018-07-30T11:49:26.584Z,31.31
2018-07-30T11:50:26.557Z,31.33
2018-07-30T11:51:26.540Z,31.17
2018-07-30T11:52:26.512Z,31.22
2018-07-30T11:53:26.492Z,31.10
2018-07-30T11:54:26.541Z,31.15
2018-07-30T11:55:26.440Z,31.20
2018-07-30T11:56:26.410Z,31.31
2018-07-30T11:57:26.382Z,31.33
2018-07-30T11:58:26.357Z,31.42
2018-07-30T11:59:26.335Z,31.46
2018-07-30T12:00:26.313Z,31.42
2018-07-30T12:01:26.350Z,31.33
2018-07-30T12:02:26.259Z,31.27
2018-07-30T12:03:26.234Z,31.34
2018-07-30T12:04:26.213Z,31.27
2018-07-30T12:05:26.189Z,31.44
2018-07-30T12:06:26.162Z,31.46
2018-07-30T12:07:26.135Z,31.49
2018-07-30T12:08:26.119Z,31.43
2018-07-30T12:09:26.081Z,31.52
2018-07-30T12:10:26.056Z,31.64
2018-07-30T12:11:26.035Z,31.89
2018-07-30T12:12:26.011Z,31.92
2018-07-30T12:13:25.997Z,32.00
2018-07-30T12:14:25.962Z,32.12
2018-07-30T12:15:25.935Z,32.12
2018-07-30T12:16:25.908Z,32.21
2018-07-30T12:17:25.882Z,32.27
2018-07-30T12:18:25.861Z,32.45
2018-07-30T12:19:25.835Z,32.34
2018-07-30T12:20:25.809Z,32.65
2018-07-30T12:21:25.792Z,32.70
2018-07-30T12:22:25.757Z,32.63
2018-07-30T12:23:25.734Z,32.64
2018-07-30T12:24:25.714Z,32.46
2018-07-30T12:25:25.691Z,32.55
2018-07-30T12:26:25.677Z,32.48
2018-07-30T12:27:25.643Z,32.41
2018-07-30T12:28:25.610Z,32.33
2018-07-30T12:29:25.585Z,32.27
2018-07-30T12:30:25.574Z,32.04
2018-07-30T12:31:25.539Z,32.15
2018-07-30T12:32:25.513Z,32.14
2018-07-30T12:33:25.491Z,31.97
2018-07-30T12:34:25.460Z,31.90
2018-07-30T12:35:25.438Z,31.96
2018-07-30T12:36:25.454Z,31.90
2018-07-30T12:37:25.400Z,32.01
2018-07-30T12:38:25.369Z,32.14
2018-07-30T12:39:25.342Z,32.18
2018-07-30T12:40:25.314Z,32.27
2018-07-30T12:41:25.289Z,32.29
2018-07-30T12:42:25.263Z,32.15
2018-07-30T12:43:25.243Z,32.14
2018-07-30T12:44:25.220Z,32.12
2018-07-30T12:45:25.195Z,32.15
2018-07-30T12:46:25.171Z,32.29
2018-07-30T12:47:25.151Z,32.15
2018-07-30T12:48:25.118Z,32.19
2018-07-30T12:49:25.104Z,32.01
2018-07-30T12:50:25.129Z,32.14
2018-07-30T12:51:25.053Z,31.93
2018-07-30T12:52:25.019Z,31.96
2018-07-30T12:53:24.992Z,32.09
2018-07-30T12:54:24.970Z,32.01
2018-07-30T12:55:24.945Z,32.11
2018-07-30T12:56:24.923Z,32.38
2018-07-30T12:57:24.899Z,32.53
2018-07-30T12:58:24.876Z,32.56
2018-07-30T12:59:24.847Z,32.56
2018-07-30T13:00:24.823Z,32.56
2018-07-30T13:01:24.806Z,32.68
2018-07-30T13:02:24.769Z,32.73
2018-07-30T13:03:24.747Z,32.74
2018-07-30T13:04:24.731Z,32.65
2018-07-30T13:05:24.703Z,32.53
2018-07-30T13:06:24.671Z,32.40
2018-07-30T13:07:24.649Z,32.29
2018-07-30T13:08:24.663Z,32.11
2018-07-30T13:09:24.605Z,32.15
2018-07-30T13:10:24.584Z,32.15
2018-07-30T13:11:24.553Z,32.23
2018-07-30T13:12:24.527Z,32.30
2018-07-30T13:13:24.503Z,32.38
2018-07-30T13:14:24.476Z,32.52
2018-07-30T13:15:24.472Z,32.58
2018-07-30T13:16:24.431Z,32.67
2018-07-30T13:17:24.408Z,32.67
2018-07-30T13:18:24.383Z,32.64
2018-07-30T13:19:24.358Z,32.55
2018-07-30T13:20:24.330Z,32.55
2018-07-30T13:21:24.313Z,32.52